Latest Weather Observations for Lucas Heights (ANSTO)

IDN60901

Issued at 6:52 pm EDT Sunday 28 February 2021 (issued every 10 minutes, with the page automatically refreshed every 10 minutes)

About weather observations | Map of Sydney area stations | Latest observations for Sydney area | Other Formats
Station Details ID: 066023 Name: LUCAS HEIGHTS (ANSTO) Lat: -34.05 Lon: 150.98 Height: 140.0 m
Data from the previous 72 hours. | See also: Recent months for locations in New South Wales
Date/Time
EDT
Temp
°C
App
Temp
°C
Dew
Point
°C
Rel
Hum
%
Delta-T
°C
Wind Press
QNH
hPa
Press
MSL
hPa
Rain since
9am
mm
Dir  Spd
km/h
Gust
km/h
Spd
kts
Gust
kts
28/06:30pm 23.0 22.4 17.5 71 3.4 E 17 22 9 12 1009.8 - 0.0
28/06:15pm 23.2 22.1 17.3 69 3.7 E 19 24 10 13 1009.7 - 0.0
28/06:00pm 23.7 22.6 17.4 68 3.9 E 19 26 10 14 1009.5 - 0.0
28/05:45pm 23.6 21.9 17.2 67 4.0 ESE 22 24 12 13 1009.5 - 0.0
28/05:30pm 23.7 21.4 16.7 65 4.3 ESE 24 26 13 14 1009.4 - 0.0
28/05:15pm 24.1 22.7 17.0 64 4.4 E 20 26 11 14 1009.5 - 0.0
28/05:00pm 24.2 23.0 17.1 64 4.4 E 19 26 10 14 1009.6 - 0.0
28/04:45pm 24.4 23.0 16.9 63 4.7 ESE 20 26 11 14 1009.7 - 0.0
28/04:30pm 25.0 23.8 17.0 61 5.0 E 19 22 10 12 1009.7 - 0.0
28/04:15pm 25.3 24.2 17.2 61 5.1 E 19 22 10 12 1009.7 - 0.0
28/04:00pm 25.4 24.7 17.4 61 5.0 E 17 24 9 13 1009.9 - 0.0
28/03:45pm 25.6 24.9 17.4 60 5.1 E 17 24 9 13 1010.0 - 0.0
28/03:30pm 25.8 25.3 17.7 61 5.1 ENE 17 20 9 11 1010.1 - 0.0
28/03:15pm 25.4 25.2 17.5 61 5.0 E 15 20 8 11 1010.2 - 0.0
28/03:00pm 25.5 24.7 17.1 59 5.2 E 17 20 9 11 1010.4 - 0.0
28/02:45pm 25.7 25.5 17.5 60 5.2 E 15 20 8 11 1010.7 - 0.0
28/02:30pm 25.3 24.5 17.0 60 5.2 E 17 24 9 13 1010.9 - 0.0
28/02:15pm 25.7 25.2 17.0 58 5.4 E 15 19 8 10 1011.1 - 0.0
28/02:00pm 25.7 26.5 17.2 59 5.3 E 9 17 5 9 1011.2 - 0.0
28/01:45pm 25.5 25.3 16.8 58 5.4 E 13 26 7 14 1011.3 - 0.0
28/01:30pm 25.5 25.6 16.5 57 5.6 E 11 20 6 11 1011.4 - 0.0
28/01:15pm 25.5 25.6 16.6 58 5.5 SE 11 17 6 9 1011.7 - 0.0
28/01:00pm 24.9 25.0 16.6 60 5.1 SE 11 17 6 9 1011.9 - 0.0
28/12:45pm 25.0 24.8 16.6 59 5.2 ESE 13 15 7 8 1012.1 - 0.0
28/12:30pm 24.8 25.0 16.7 60 5.0 E 11 15 6 8 1012.3 - 0.0
28/12:15pm 24.4 24.1 16.4 61 4.9 E 13 20 7 11 1012.4 - 0.0
28/12:00pm 24.4 24.1 16.5 61 4.9 ESE 13 19 7 10 1012.6 - 0.0
28/11:45am 24.2 23.9 16.5 62 4.7 SE 13 17 7 9 1012.6 - 0.0
28/11:30am 24.3 24.6 17.0 63 4.5 SE 11 17 6 9 1012.7 - 0.0
28/11:15am 23.8 23.3 16.8 65 4.3 ESE 15 17 8 9 1012.7 - 0.0
28/11:00am 23.9 23.8 17.0 65 4.3 ESE 13 17 7 9 1012.8 - 0.0
28/10:45am 23.8 24.3 17.4 67 4.0 SE 11 15 6 8 1012.8 - 0.0
28/10:30am 23.2 23.2 17.1 68 3.8 SE 13 15 7 8 1012.8 - 0.0
28/10:15am 23.0 23.0 17.1 69 3.7 SE 13 15 7 8 1012.8 - 0.0
28/10:00am 22.5 22.0 17.0 71 3.4 ESE 15 19 8 10 1012.8 - 0.0
28/09:45am 22.5 22.5 17.2 72 3.3 SE 13 17 7 9 1012.8 - 0.0
28/09:30am 22.0 21.8 17.7 76 2.7 SSE 15 20 8 11 1013.0 - 0.0
28/09:15am 21.3 21.1 17.5 79 2.4 SSE 15 20 8 11 1012.9 - 0.0
28/09:00am 20.9 19.7 17.6 81 2.0 SSE 20 24 11 13 1012.8 - 0.2
28/08:45am 20.5 19.4 17.8 84 1.7 SSE 20 28 11 15 1012.6 - 0.2
28/08:30am 20.0 19.2 17.9 88 1.3 SSE 19 22 10 12 1012.5 - 0.2
28/08:15am 19.6 18.8 18.0 90 1.0 SSE 19 22 10 12 1012.4 - 0.2
28/08:00am 19.2 18.8 18.0 93 0.7 SSE 17 20 9 11 1012.3 - 0.2
28/07:45am 18.9 18.0 17.7 93 0.7 SSE 19 22 10 12 1012.2 - 0.2
28/07:30am 18.7 17.7 17.6 93 0.7 SSE 19 20 10 11 1012.0 - 0.2
28/07:15am 18.7 18.1 17.6 93 0.7 SE 17 19 9 10 1011.7 - 0.2
28/07:00am 18.7 18.1 17.6 93 0.7 SSE 17 17 9 9 1011.5 - 0.2
28/06:45am 18.8 18.3 17.7 93 0.7 SSE 17 20 9 11 1011.3 - 0.2
28/06:30am 18.7 18.1 17.5 93 0.7 SE 17 19 9 10 1011.0 - 0.2
28/06:15am 18.7 18.8 17.4 92 0.8 SE 13 15 7 8 1010.8 - 0.2
28/06:00am 18.7 19.2 17.5 93 0.7 SSE 11 13 6 7 1010.8 - 0.2
28/05:45am 18.7 18.8 17.5 93 0.7 SSE 13 15 7 8 1010.8 - 0.2
28/05:30am 18.9 19.5 17.6 92 0.8 SSE 11 13 6 7 1010.7 - 0.2
28/05:15am 18.7 19.2 17.4 92 0.8 S 11 11 6 6 1010.6 - 0.2
28/05:00am 18.7 19.5 17.4 92 0.8 S 9 11 5 6 1010.6 - 0.2
28/04:45am 18.5 18.5 17.2 92 0.8 SSE 13 13 7 7 1010.5 - 0.2
28/04:30am 18.8 19.6 17.3 91 0.9 S 9 11 5 6 1010.4 - 0.2
28/04:15am 19.5 21.0 18.1 92 0.9 SW 7 9 4 5 1010.3 - 0.2
28/04:00am 19.6 21.2 18.2 92 0.9 W 7 9 4 5 1010.4 - 0.2
28/03:45am 19.4 20.9 18.1 92 0.8 W 7 9 4 5 1010.6 - 0.2
28/03:30am 19.5 21.1 18.2 92 0.8 W 7 9 4 5 1010.7 - 0.2
28/03:15am 19.4 20.9 18.1 92 0.8 W 7 9 4 5 1010.7 - 0.2
28/03:00am 19.5 21.1 18.2 92 0.8 W 7 9 4 5 1010.7 - 0.2
28/02:45am 19.4 20.5 18.1 92 0.8 W 9 11 5 6 1010.8 - 0.2
28/02:30am 19.4 20.1 18.0 92 0.9 W 11 13 6 7 1011.0 - 0.2
28/02:15am 19.3 20.8 18.0 92 0.8 W 7 9 4 5 1011.3 - 0.2
28/02:00am 19.3 20.4 17.9 92 0.9 W 9 13 5 7 1011.3 - 0.2
28/01:45am 19.5 20.6 18.1 92 0.9 W 9 9 5 5 1011.4 - 0.2
28/01:30am 19.6 20.4 18.2 92 0.9 WNW 11 11 6 6 1011.6 - 0.2
28/01:15am 19.7 20.6 18.3 92 0.9 WNW 11 11 6 6 1011.7 - 0.2
28/01:00am 19.6 20.0 18.2 92 0.9 NW 13 11 7 6 1011.6 - 0.2
28/12:45am 19.7 20.6 18.3 92 0.9 NW 11 11 6 6 1011.6 - 0.2
28/12:30am 19.8 20.3 18.3 91 0.9 NW 13 13 7 7 1011.7 - 0.2
28/12:15am 19.8 20.7 18.3 91 0.9 NNW 11 13 6 7 1011.6 - 0.2
28/12:00am 19.8 21.0 18.3 91 0.9 NNW 9 13 5 7 1011.7 - 0.2
 
Date/Time
EDT
Temp
°C
App
Temp
°C
Dew
Point
°C
Rel
Hum
%
Delta-T
°C
Wind Press
QNH
hPa
Press
MSL
hPa
Rain since
9am
mm
Dir  Spd
km/h
Gust
km/h
Spd
kts
Gust
kts
27/11:45pm 20.0 20.9 18.4 90 1.0 NNW 11 13 6 7 1011.8 - 0.2
27/11:30pm 20.0 20.9 18.5 91 0.9 NNW 11 11 6 6 1012.0 - 0.2
27/11:15pm 20.0 20.9 18.5 91 0.9 NNW 11 13 6 7 1012.1 - 0.2
27/11:00pm 20.1 21.4 18.5 90 1.0 NNW 9 9 5 5 1012.0 - 0.2
27/10:45pm 20.2 21.6 18.6 90 1.0 NNW 9 11 5 6 1012.1 - 0.2
27/10:30pm 20.2 21.6 18.6 90 1.0 NNW 9 11 5 6 1012.2 - 0.2
27/10:15pm 20.2 21.6 18.6 90 1.0 N 9 13 5 7 1012.2 - 0.2
27/10:00pm 20.2 21.1 18.5 90 1.1 N 11 13 6 7 1012.3 - 0.2
27/09:45pm 20.3 21.6 18.5 89 1.1 N 9 13 5 7 1012.2 - 0.2
27/09:30pm 20.4 21.3 18.5 89 1.2 N 11 15 6 8 1012.1 - 0.2
27/09:15pm 20.5 21.4 18.5 88 1.3 - 11 15 6 8 1011.9 - 0.2
27/09:00pm 20.6 21.5 18.5 88 1.3 NNE 11 13 6 7 1011.8 - 0.2
27/08:45pm 20.6 21.9 18.4 87 1.4 NNE 9 13 5 7 1011.8 - 0.2
27/08:30pm 20.6 21.5 18.3 87 1.4 N 11 15 6 8 1011.7 - 0.2
27/08:15pm 20.5 20.9 18.1 86 1.5 NNE 13 13 7 7 1011.5 - 0.2
27/08:00pm 20.4 21.0 17.8 85 1.6 NNE 11 13 6 7 1011.2 - 0.2
27/07:45pm 20.7 21.0 17.9 84 1.7 NNE 13 15 7 8 1011.0 - 0.2
27/07:30pm 21.1 21.5 18.1 83 1.9 NNE 13 15 7 8 1011.0 - 0.2
27/07:15pm 21.3 21.7 18.2 82 1.9 NNE 13 15 7 8 1010.9 - 0.2
27/07:00pm 21.5 22.4 18.4 82 1.9 NNE 11 17 6 9 1010.8 - 0.2
27/06:45pm 21.7 22.7 18.6 82 2.0 NNE 11 15 6 8 1010.8 - 0.2
27/06:30pm 21.5 22.8 18.4 82 1.9 N 9 13 5 7 1010.9 - 0.2
27/06:15pm 21.5 22.4 18.4 82 1.9 NNE 11 15 6 8 1011.0 - 0.2
27/06:00pm 21.6 22.9 18.4 82 2.0 NNE 9 13 5 7 1010.8 - 0.2
27/05:45pm 21.8 23.2 18.6 82 2.0 NNE 9 13 5 7 1010.9 - 0.2
27/05:30pm 21.7 22.7 18.6 82 2.0 NNE 11 13 6 7 1010.9 - 0.2
27/05:15pm 21.3 22.2 18.5 84 1.8 - 11 15 6 8 1011.0 - 0.2
27/05:00pm 21.2 23.0 18.7 86 1.6 N 7 13 4 7 1011.1 - 0.2
27/04:45pm 21.0 22.4 18.7 87 1.5 NNE 9 13 5 7 1011.3 - 0.2
27/04:30pm 20.8 22.1 18.5 87 1.4 NE 9 13 5 7 1011.4 - 0.2
27/04:15pm 20.7 22.0 18.4 87 1.4 NE 9 13 5 7 1011.4 - 0.2
27/04:00pm 20.8 22.1 18.5 87 1.4 NE 9 15 5 8 1011.7 - 0.2
27/03:45pm 20.8 23.4 18.5 87 1.4 NNW 2 6 1 3 1011.8 - 0.2
27/03:30pm 20.6 22.9 18.5 88 1.3 NNW 4 7 2 4 1012.0 - 0.2
27/03:15pm 20.5 22.8 18.5 88 1.3 - 4 7 2 4 1012.1 - 0.2
27/03:00pm 20.2 21.9 18.4 89 1.1 N 7 13 4 7 1012.3 - 0.2
27/02:45pm 20.1 21.4 18.5 90 1.0 N 9 15 5 8 1012.5 - 0.2
27/02:30pm 19.7 20.6 18.3 92 0.9 N 11 15 6 8 1012.7 - 0.2
27/02:15pm 19.6 20.4 18.1 91 0.9 NNE 11 15 6 8 1013.0 - 0.2
27/02:00pm 19.6 20.7 18.1 91 0.9 NE 9 13 5 7 1013.2 - 0.2
27/01:45pm 19.5 20.6 18.0 91 0.9 N 9 15 5 8 1013.5 - 0.2
27/01:30pm 19.3 20.7 17.7 90 1.0 - 7 11 4 6 1013.7 - 0.0
27/01:15pm 19.3 20.6 17.6 90 1.0 N 7 9 4 5 1013.9 - 0.0
27/01:00pm 19.3 20.8 17.6 90 1.0 NNW 6 9 3 5 1014.1 - 0.0
27/12:45pm 19.2 20.4 17.4 89 1.1 NNW 7 9 4 5 1014.2 - 0.0
27/12:30pm 19.3 20.5 17.4 89 1.2 N 7 9 4 5 1014.3 - 0.0
27/12:15pm 19.3 20.7 17.3 88 1.2 N 6 9 3 5 1014.4 - 0.0
27/12:00pm 19.5 20.6 17.1 86 1.5 N 7 11 4 6 1014.3 - 0.0
27/11:45am 19.8 20.9 17.0 84 1.7 NE 7 9 4 5 1014.3 - 0.0
27/11:30am 19.8 21.1 17.0 84 1.7 NE 6 9 3 5 1014.3 - 0.0
27/11:15am 19.6 20.9 17.0 85 1.6 ENE 6 7 3 4 1014.4 - 0.0
27/11:00am 19.3 20.8 16.7 85 1.6 NE 4 7 2 4 1014.5 - 0.0
27/10:45am 19.4 21.0 16.8 85 1.6 ENE 4 7 2 4 1014.3 - 0.0
27/10:30am 19.1 20.6 16.7 86 1.5 ENE 4 6 2 3 1014.4 - 0.0
27/10:15am 18.8 20.3 16.7 87 1.3 ESE 4 6 2 3 1014.4 - 0.0
27/10:00am 18.6 20.1 16.7 89 1.1 S 4 6 2 3 1014.5 - 0.0
27/09:45am 18.4 20.3 16.6 89 1.1 S 2 6 1 3 1014.4 - 0.0
27/09:30am 18.2 20.0 16.5 90 1.0 SSE 2 6 1 3 1014.4 - 0.0
27/09:15am 17.9 19.3 16.3 90 1.0 S 4 6 2 3 1014.5 - 0.0
27/09:00am 17.7 18.4 16.0 90 1.0 S 7 7 4 4 1014.3 - 0.0
27/08:45am 17.7 18.3 15.9 89 1.1 SSW 7 7 4 4 1014.3 - 0.0
27/08:30am 17.9 18.7 15.9 88 1.2 SSW 6 7 3 4 1014.2 - 0.0
27/08:15am 18.0 19.2 15.8 87 1.3 S 4 4 2 2 1014.0 - 0.0
27/01:45am 18.7 17.7 15.5 81 1.9 ESE 15 17 8 9 1014.2 - 0.0
27/01:30am 18.8 18.9 15.6 82 1.9 SE 9 15 5 8 1014.6 - 0.0
27/01:15am 18.8 18.9 15.5 81 2.0 SE 9 15 5 8 1014.6 - 0.0
27/01:00am 19.0 18.7 15.5 80 2.1 SE 11 15 6 8 1014.6 - 0.0
27/12:45am 19.1 18.8 15.5 79 2.1 SE 11 15 6 8 1014.6 - 0.0
27/12:30am 19.2 18.5 15.4 78 2.3 ESE 13 17 7 9 1014.8 - 0.0
27/12:15am 19.3 18.6 15.4 78 2.3 ESE 13 15 7 8 1014.9 - 0.0
27/12:00am 19.5 18.8 15.4 77 2.4 ESE 13 15 7 8 1014.9 - 0.0
 
Date/Time
EDT
Temp
°C
App
Temp
°C
Dew
Point
°C
Rel
Hum
%
Delta-T
°C
Wind Press
QNH
hPa
Press
MSL
hPa
Rain since
9am
mm
Dir  Spd
km/h
Gust
km/h
Spd
kts
Gust
kts
26/11:45pm 19.6 19.3 15.4 77 2.5 ESE 11 13 6 7 1014.9 - 0.0
26/11:30pm 19.6 19.3 15.4 77 2.5 ESE 11 13 6 7 1014.8 - 0.0
26/11:15pm 19.7 19.4 15.4 76 2.6 ESE 11 13 6 7 1014.8 - 0.0
26/11:00pm 19.7 19.0 15.4 76 2.6 E 13 17 7 9 1014.7 - 0.0
26/10:45pm 19.7 19.4 15.4 76 2.6 E 11 15 6 8 1014.6 - 0.0
26/10:30pm 19.7 19.0 15.4 76 2.6 E 13 15 7 8 1014.5 - 0.0
26/10:15pm 19.7 15.0 -1.9 23 9.2 ESE 13 15 7 8 1014.5 - 0.0
26/10:00pm 19.8 17.3 9.8 52 5.4 E 13 19 7 10 1014.3 - 0.0
26/09:45pm 19.8 18.4 15.5 76 2.6 E 17 22 9 12 1014.1 - 0.0
26/09:30pm 19.8 17.8 15.5 76 2.6 ESE 20 26 11 14 1014.0 - 0.0
26/09:15pm 19.9 17.9 15.6 76 2.6 ESE 20 26 11 14 1013.7 - 0.0
26/09:00pm 20.0 18.2 15.6 76 2.6 ESE 19 24 10 13 1013.5 - 0.0
26/08:45pm 20.2 18.5 15.7 75 2.7 ESE 19 22 10 12 1013.3 - 0.0
26/08:30pm 20.2 18.9 15.7 75 2.7 ESE 17 20 9 11 1013.1 - 0.0
26/08:15pm 20.3 18.6 15.7 75 2.8 ESE 19 22 10 12 1012.9 - 0.0
26/08:00pm 20.3 18.6 15.7 75 2.8 ESE 19 20 10 11 1012.6 - 0.0
26/07:45pm 20.3 18.6 15.8 75 2.7 ESE 19 22 10 12 1012.2 - 0.0
26/07:30pm 20.4 18.8 16.0 76 2.6 ESE 19 24 10 13 1012.1 - 0.0
26/07:15pm 20.5 18.5 15.5 73 3.0 ESE 20 24 11 13 1011.8 - 0.0
26/07:00pm 20.6 18.1 16.1 75 2.7 ESE 24 28 13 15 1011.5 - 0.0
26/06:45pm 20.8 18.4 16.3 75 2.7 ESE 24 30 13 16 1011.2 - 0.0
26/06:30pm 21.0 18.2 16.3 74 2.8 ESE 26 32 14 17 1010.9 - 0.0
26/06:15pm 21.4 18.2 16.4 73 3.0 ESE 28 32 15 17 1010.6 - 0.0
26/06:00pm 21.7 19.0 16.6 73 3.1 ESE 26 32 14 17 1010.3 - 0.0
26/05:45pm 21.8 18.7 16.5 72 3.2 ESE 28 32 15 17 1010.0 - 0.0
26/05:30pm 22.0 18.9 16.6 71 3.3 ESE 28 32 15 17 1009.9 - 0.0
26/05:15pm 22.4 19.4 16.7 70 3.5 ESE 28 35 15 19 1009.8 - 0.0
26/05:00pm 22.1 18.2 16.4 70 3.5 ESE 32 32 17 17 1009.8 - 0.0
26/04:45pm 23.1 20.5 16.9 68 3.8 ESE 26 33 14 18 1009.7 - 0.0
26/04:30pm 22.9 19.8 16.6 67 3.9 ESE 28 32 15 17 1009.5 - 0.0
26/04:15pm 23.1 20.4 16.6 67 4.0 ESE 26 32 14 17 1009.4 - 0.0
26/04:00pm 23.3 20.9 16.4 65 4.2 ESE 24 32 13 17 1009.3 - 0.0
26/03:45pm 23.1 19.9 16.3 65 4.2 ESE 28 32 15 17 1009.3 - 0.0
26/03:30pm 23.7 20.9 16.4 63 4.5 ESE 26 32 14 17 1009.2 - 0.0
26/03:15pm 23.8 21.3 16.2 62 4.7 ESE 24 28 13 15 1009.1 - 0.0
26/03:00pm 24.1 21.7 16.5 62 4.7 E 24 28 13 15 1009.2 - 0.0
26/02:45pm 24.2 21.8 16.4 61 4.8 ESE 24 30 13 16 1009.2 - 0.0
26/02:30pm 24.8 23.3 16.8 61 5.0 E 20 30 11 16 1009.2 - 0.0
26/02:15pm 25.0 23.6 16.6 59 5.2 E 19 24 10 13 1009.3 - 0.0
26/02:00pm 26.2 25.5 16.3 54 6.1 E 15 20 8 11 1009.2 - 0.0
26/01:45pm 27.9 26.3 10.2 33 10.0 SW 9 17 5 9 1009.3 - 0.0
26/01:30pm 27.3 25.8 10.5 35 9.5 SW 9 15 5 8 1009.4 - 0.0
26/01:15pm 27.0 25.9 10.5 35 9.3 WNW 7 15 4 8 1009.4 - 0.0
26/01:00pm 26.7 24.8 10.5 36 9.1 WSW 11 15 6 8 1009.5 - 0.0
26/12:45pm 26.7 24.0 10.2 35 9.3 WSW 15 24 8 13 1009.6 - 0.0
26/12:30pm 26.8 24.6 10.7 36 9.1 SW 13 19 7 10 1009.7 - 0.0
26/12:15pm 26.6 23.5 10.2 35 9.2 SW 17 20 9 11 1009.8 - 0.0
26/12:00pm 26.3 23.1 9.8 35 9.2 SSW 17 20 9 11 1010.1 - 0.0
26/11:45am 26.0 22.8 8.3 32 9.6 SW 15 19 8 10 1010.2 - 0.0
26/11:30am 25.8 22.6 8.4 33 9.4 SW 15 22 8 12 1010.3 - 0.0
26/11:15am 25.6 23.1 8.3 33 9.3 SW 11 17 6 9 1010.3 - 0.0
26/11:00am 25.6 23.6 10.2 38 8.6 SW 11 13 6 7 1010.3 - 0.0
26/10:45am 25.0 23.9 12.0 44 7.5 S 9 13 5 7 1010.3 - 0.0
26/10:30am 24.6 23.6 12.3 46 7.1 S 9 13 5 7 1010.2 - 0.0
26/10:15am 24.5 23.5 13.5 50 6.5 S 11 15 6 8 1010.3 - 0.0
26/10:00am 23.7 22.5 14.0 54 5.7 S 13 17 7 9 1010.3 - 0.0
26/09:45am 23.1 23.6 15.5 62 4.6 S 7 13 4 7 1010.2 - 0.0
26/09:30am 22.5 23.5 16.4 68 3.7 S 6 9 3 5 1010.2 - 0.0
26/09:15am 21.7 22.6 16.2 71 3.3 SSE 6 7 3 4 1010.1 - 0.0
26/09:00am 21.3 22.0 16.0 72 3.2 S 7 9 4 5 1010.0 - 6.8
26/08:45am 20.7 21.0 16.0 74 2.8 SSE 9 13 5 7 1009.9 - 6.8
26/08:30am 20.0 19.8 15.7 76 2.6 SSE 11 15 6 8 1009.9 - 6.8
26/08:15am 19.5 19.9 16.3 82 1.9 SSE 9 9 5 5 1009.8 - 6.8
26/08:00am 18.3 18.6 16.1 87 1.3 S 9 11 5 6 1009.7 - 6.8
26/07:45am 17.4 17.1 15.5 89 1.1 S 11 15 6 8 1009.4 - 6.8
26/07:30am 17.0 16.7 15.4 90 0.9 SSE 11 13 6 7 1009.4 - 6.8
26/07:15am 16.5 16.7 14.8 90 1.0 SE 7 11 4 6 1009.2 - 6.8
26/07:00am 16.3 14.8 14.3 88 1.1 S 15 15 8 8 1008.9 - 6.8
26/06:45am 17.0 16.0 14.7 86 1.3 S 13 17 7 9 1008.6 - 6.8
26/06:30am 17.8 15.4 15.3 85 1.5 SSW 22 22 12 12 1008.2 - 6.8
26/06:15am 17.8 15.1 15.6 87 1.3 SSW 24 22 13 12 1008.1 - 6.8
26/06:00am 17.4 15.1 15.7 90 1.0 SSW 22 20 12 11 1007.9 - 6.8
26/05:45am 16.8 14.9 15.2 90 0.9 SSW 19 20 10 11 1007.8 - 6.8
26/05:30am 16.8 15.2 15.1 90 1.0 SSW 17 17 9 9 1007.8 - 6.8
26/05:15am 17.0 15.4 15.1 88 1.1 SW 17 17 9 9 1007.6 - 6.8
26/05:00am 17.6 15.9 15.8 89 1.1 SW 19 17 10 9 1007.4 - 6.8
26/04:45am 17.5 15.6 15.8 90 1.0 WSW 20 20 11 11 1007.4 - 6.8
26/04:30am 17.8 16.0 16.0 89 1.1 WSW 20 20 11 11 1007.5 - 6.8
26/04:15am 18.2 16.2 16.5 90 1.0 WSW 22 20 12 11 1007.4 - 6.8
26/04:00am 18.4 17.1 16.8 90 1.0 WSW 19 20 10 11 1007.3 - 6.8
26/03:45am 18.3 17.3 16.7 90 1.0 W 17 17 9 9 1007.4 - 6.8
26/03:30am 18.3 17.0 16.7 90 1.0 W 19 19 10 10 1007.5 - 6.8
26/03:15am 18.2 17.2 16.6 90 1.0 W 17 19 9 10 1007.5 - 6.8
26/03:00am 18.5 17.2 16.8 90 1.0 W 19 20 10 11 1007.4 - 6.8
26/02:45am 18.5 17.0 16.8 90 1.0 W 20 20 11 11 1007.3 - 6.8
26/02:30am 18.6 17.3 16.9 90 1.0 W 19 20 10 11 1007.3 - 6.8
26/02:15am 18.6 17.3 16.9 90 1.0 W 19 20 10 11 1007.3 - 6.8
26/02:00am 18.7 17.6 17.3 91 0.9 W 19 17 10 9 1007.5 - 6.8
26/01:45am 18.0 16.6 16.6 91 0.8 W 19 17 10 9 1007.7 - 6.8
26/01:30am 17.5 17.0 15.9 90 0.9 W 13 17 7 9 1007.9 - 6.8
26/01:15am 18.1 17.8 16.5 90 1.0 WNW 13 13 7 7 1008.0 - 6.8
26/01:00am 18.3 17.8 16.8 91 0.9 WNW 15 15 8 8 1008.0 - 6.8
26/12:45am 18.0 17.8 16.6 91 0.8 WNW 13 13 7 7 1008.2 - 6.8
26/12:30am 17.4 16.9 15.9 91 0.9 WNW 13 11 7 6 1008.3 - 6.8
26/12:15am 17.5 17.4 16.0 91 0.9 WNW 11 11 6 6 1008.6 - 6.8
26/12:00am 17.5 17.7 15.8 90 1.0 WNW 9 9 5 5 1008.6 - 6.8
 
Date/Time
EDT
Temp
°C
App
Temp
°C
Dew
Point
°C
Rel
Hum
%
Delta-T
°C
Wind Press
QNH
hPa
Press
MSL
hPa
Rain since
9am
mm
Dir  Spd
km/h
Gust
km/h
Spd
kts
Gust
kts
25/11:45pm 17.9 17.8 16.1 89 1.1 WNW 11 13 6 7 1008.5 - 6.8
25/11:30pm 18.5 18.2 16.5 88 1.2 WNW 13 15 7 8 1008.6 - 6.8
25/11:15pm 18.4 17.4 16.5 89 1.1 NW 17 17 9 9 1008.4 - 6.8
25/11:00pm 18.6 17.6 16.6 88 1.2 NW 17 17 9 9 1008.6 - 6.8
25/10:45pm 18.6 17.6 16.6 88 1.2 WNW 17 17 9 9 1008.8 - 6.8
25/10:30pm 18.8 18.3 16.8 88 1.2 W 15 15 8 8 1008.9 - 6.8
25/10:15pm 18.8 18.0 17.0 89 1.1 W 17 15 9 8 1008.9 - 6.8
25/10:00pm 18.6 17.8 17.1 91 0.9 W 17 17 9 9 1009.0 - 6.8
25/09:45pm 18.4 17.5 16.9 91 0.9 WSW 17 19 9 10 1008.9 - 6.8
25/09:30pm 18.5 17.7 17.0 91 0.9 WSW 17 17 9 9 1008.8 - 6.8
25/09:15pm 18.7 18.3 17.2 91 0.9 W 15 17 8 9 1008.7 - 6.8
25/09:00pm 18.7 18.7 17.2 91 0.9 W 13 15 7 8 1008.7 - 6.8
25/08:45pm 18.8 18.4 17.1 90 1.0 W 15 15 8 8 1008.9 - 6.8
25/08:30pm 18.9 18.9 17.2 90 1.0 W 13 15 7 8 1008.7 - 6.8
25/08:15pm 18.8 19.1 17.1 90 1.0 WNW 11 13 6 7 1008.6 - 6.8
25/08:00pm 18.8 18.4 17.1 90 1.0 NW 15 15 8 8 1008.4 - 6.8
25/07:45pm 19.1 18.0 17.4 90 1.0 NNW 19 20 10 11 1008.2 - 6.8
25/07:30pm 19.4 19.6 17.6 89 1.1 NW 13 15 7 8 1008.2 - 6.7
25/07:15pm 19.6 19.8 17.7 89 1.2 NW 13 15 7 8 1008.0 - 6.7
25/07:00pm 19.8 19.7 17.8 88 1.2 NW 15 17 8 9 1008.0 - 6.7

Latest Capital City Observations: Canberra | Sydney | Melbourne | Brisbane | Adelaide | Perth | Hobart | Darwin

Other formats

Comma delimited format used in spreadsheet applications
http://www.bom.gov.au/fwo/IDN60901/IDN60901.95757.axf

JavaScript Object Notation format (JSON) in row-major order
http://www.bom.gov.au/fwo/IDN60901/IDN60901.95757.json

Data quality

Most of these data are generated automatically and are frequently updated. Quality checks on data are not normally performed. It is possible for incorrect values to appear. Refer to information at About Latest Weather Observations and please check the disclaimer before using these data.